Thayne, Wyoming
Current Conditions -  °F | °C
As of 2:15 PM on Friday 31 Oct 2014 (Local Time) from KAFO Reporting Station
Clear Clear  
Wind Chill: 63°   Ceiling: Unl
Heat Index: 63°   Visibility: 10mi
Dew Point: 23°   Wind: 12mph
Humidity: 22%   Direction: 200°SSW
Pressure: 29.98"   Gusts: 22mph
Location:  42.92°N, 111°W
Report Text: KAFO 312015Z AUTO 20010G19KT 10SM CLR 17/M05 A2998 RMK AO2
Loading
Personal Weather Stations






























Interactive Weather Map
Tropical Storm Tracking
New forecast layout! Learn more

10-Day Weather Forecast

Advertisements
Track Severe Weather on mobile